createdAt,value
2019-04-29T00:00:46.706Z,10.40
2019-04-29T00:03:16.007Z,12.03
2019-04-29T00:05:45.373Z,11.47
2019-04-29T00:08:14.620Z,13.07
2019-04-29T00:10:43.922Z,11.50
2019-04-29T00:13:14.042Z,11.73
2019-04-29T00:15:56.327Z,12.97
2019-04-29T00:18:35.553Z,12.13
2019-04-29T00:21:04.822Z,12.03
2019-04-29T00:23:34.063Z,18.77
2019-04-29T00:26:05.134Z,22.03
2019-04-29T00:28:34.857Z,20.13
2019-04-29T00:31:04.218Z,16.73
2019-04-29T00:33:33.852Z,13.90
2019-04-29T00:36:03.106Z,16.10
2019-04-29T00:38:54.667Z,15.97
2019-04-29T00:41:46.314Z,14.57
2019-04-29T00:44:17.628Z,17.03
2019-04-29T00:46:47.261Z,13.43
2019-04-29T00:49:16.860Z,13.40
2019-04-29T00:51:48.217Z,15.37
2019-04-29T00:54:38.232Z,24.97
2019-04-29T00:57:07.815Z,20.30
2019-04-29T00:59:38.478Z,19.83
2019-04-29T01:02:08.524Z,20.75
2019-04-29T01:04:38.176Z,22.60
2019-04-29T01:07:08.642Z,18.50
2019-04-29T01:09:37.876Z,18.03
2019-04-29T01:12:07.651Z,18.23
2019-04-29T01:14:37.011Z,20.30
2019-04-29T01:17:06.279Z,19.23
2019-04-29T01:19:35.900Z,19.77
2019-04-29T01:22:05.360Z,20.23
2019-04-29T01:24:34.624Z,20.40
2019-04-29T01:27:17.778Z,21.60
2019-04-29T01:29:47.228Z,25.00
2019-04-29T01:32:16.515Z,24.13
2019-04-29T01:34:54.342Z,18.27
2019-04-29T01:37:41.240Z,20.60
2019-04-29T01:40:29.623Z,24.63
2019-04-29T01:42:58.899Z,24.70
2019-04-29T01:45:28.541Z,30.40
2019-04-29T01:47:58.576Z,25.17
2019-04-29T01:50:27.823Z,23.97
2019-04-29T01:52:57.471Z,22.97
2019-04-29T01:55:27.047Z,32.93
2019-04-29T01:57:56.688Z,28.57
2019-04-29T02:00:25.951Z,32.00
2019-04-29T02:02:55.679Z,30.40
2019-04-29T02:05:24.955Z,31.13
2019-04-29T02:07:54.204Z,23.20
2019-04-29T02:10:33.211Z,23.83
2019-04-29T02:13:03.256Z,23.17
2019-04-29T02:15:32.523Z,26.50
2019-04-29T02:18:01.934Z,29.53
2019-04-29T02:20:31.200Z,28.60
2019-04-29T02:23:26.659Z,25.87
2019-04-29T02:25:56.304Z,21.47
2019-04-29T02:28:25.653Z,30.30
2019-04-29T02:30:54.939Z,28.67
2019-04-29T02:33:24.608Z,28.20
2019-04-29T02:35:54.163Z,30.30
2019-04-29T02:38:42.356Z,28.60
2019-04-29T02:41:33.333Z,34.38
2019-04-29T02:44:04.641Z,29.00
2019-04-29T02:46:35.380Z,35.10
2019-04-29T02:49:04.678Z,30.27
2019-04-29T02:51:49.150Z,27.50
2019-04-29T02:54:19.936Z,36.53
2019-04-29T02:56:56.093Z,36.70
2019-04-29T02:59:31.500Z,31.40
2019-04-29T03:02:25.751Z,32.60
2019-04-29T03:05:13.709Z,35.87
2019-04-29T03:07:43.006Z,36.80
2019-04-29T03:10:12.731Z,39.03
2019-04-29T03:12:42.324Z,40.90
2019-04-29T03:15:13.047Z,42.47
2019-04-29T03:17:43.946Z,43.83
2019-04-29T03:20:22.060Z,46.40
2019-04-29T03:23:07.638Z,46.47
2019-04-29T03:25:37.344Z,39.23
2019-04-29T03:28:07.057Z,46.37
2019-04-29T03:30:36.606Z,40.50
2019-04-29T03:33:06.074Z,39.00
2019-04-29T03:35:38.245Z,33.40
2019-04-29T03:38:10.238Z,48.87
2019-04-29T03:40:41.134Z,46.33
2019-04-29T03:43:11.984Z,42.50
2019-04-29T03:45:42.315Z,45.80
2019-04-29T03:48:11.705Z,39.10
2019-04-29T03:50:41.330Z,40.27
2019-04-29T03:53:10.644Z,33.00
2019-04-29T03:55:41.634Z,38.47
2019-04-29T03:58:10.974Z,42.73
2019-04-29T04:00:44.277Z,37.93
2019-04-29T04:03:28.902Z,34.43
2019-04-29T04:06:05.646Z,37.97
2019-04-29T04:08:42.746Z,37.03
2019-04-29T04:11:12.107Z,37.43
2019-04-29T04:13:41.492Z,47.87
2019-04-29T04:16:22.177Z,33.93
2019-04-29T04:19:12.082Z,35.77
2019-04-29T04:21:42.988Z,37.40
2019-04-29T04:24:12.624Z,35.53
2019-04-29T04:26:43.595Z,34.85
2019-04-29T04:29:12.868Z,33.70
2019-04-29T04:31:44.310Z,40.63
2019-04-29T04:34:14.575Z,40.87
2019-04-29T04:36:45.831Z,36.60
2019-04-29T04:39:15.494Z,33.80
2019-04-29T04:41:44.960Z,30.97
2019-04-29T04:44:14.642Z,34.07
2019-04-29T04:46:47.825Z,37.17
2019-04-29T04:49:19.276Z,39.00
2019-04-29T04:51:50.836Z,34.40
2019-04-29T04:54:20.144Z,29.40
2019-04-29T04:56:50.704Z,34.70
2019-04-29T04:59:21.839Z,33.67
2019-04-29T05:01:51.475Z,32.43
2019-04-29T05:04:21.156Z,35.60
2019-04-29T05:06:50.778Z,34.17
2019-04-29T05:09:21.843Z,38.37
2019-04-29T05:11:51.617Z,26.97
2019-04-29T05:14:23.009Z,28.60
2019-04-29T05:16:52.530Z,29.30
2019-04-29T05:19:22.145Z,30.13
2019-04-29T05:21:51.755Z,25.20
2019-04-29T05:24:22.029Z,26.80
2019-04-29T05:26:51.336Z,25.53
2019-04-29T05:29:20.635Z,27.27
2019-04-29T05:31:51.686Z,42.80
2019-04-29T05:34:22.712Z,26.97
2019-04-29T05:37:18.584Z,31.63
2019-04-29T05:39:47.987Z,29.00
2019-04-29T05:42:17.582Z,27.53
2019-04-29T05:45:10.132Z,28.07
2019-04-29T05:47:44.436Z,29.03
2019-04-29T05:50:32.454Z,24.60
2019-04-29T05:53:31.768Z,20.73
2019-04-29T05:56:02.086Z,20.50
2019-04-29T05:58:37.821Z,19.07
2019-04-29T06:01:09.649Z,20.10
2019-04-29T06:03:44.375Z,20.53
2019-04-29T06:06:15.821Z,18.93
2019-04-29T06:08:49.017Z,19.60
2019-04-29T06:11:19.544Z,15.60
2019-04-29T06:13:51.950Z,14.20
2019-04-29T06:16:22.849Z,11.03
2019-04-29T06:18:59.694Z,12.90
2019-04-29T06:21:24.689Z,15.77
2019-04-29T06:23:59.496Z,15.30
2019-04-29T06:26:27.165Z,16.80
2019-04-29T06:28:56.741Z,20.40
2019-04-29T06:31:27.377Z,23.63
2019-04-29T06:34:00.584Z,19.30
2019-04-29T06:36:32.415Z,27.20
2019-04-29T06:39:02.032Z,21.07
2019-04-29T06:41:31.294Z,18.83
2019-04-29T06:44:06.662Z,24.83
2019-04-29T06:46:33.148Z,21.40
2019-04-29T06:49:09.925Z,21.13
2019-04-29T06:51:33.501Z,24.57
2019-04-29T06:54:04.762Z,21.70
2019-04-29T06:56:34.494Z,14.67
2019-04-29T06:59:07.522Z,15.57
2019-04-29T07:01:37.448Z,8.63
2019-04-29T07:04:06.185Z,9.20
2019-04-29T07:06:35.465Z,12.13
2019-04-29T07:09:06.730Z,9.10
2019-04-29T07:11:36.969Z,8.13
2019-04-29T07:14:10.703Z,7.23
2019-04-29T07:16:40.079Z,8.93
2019-04-29T07:19:10.330Z,7.20
2019-04-29T07:21:41.961Z,7.80
2019-04-29T07:24:11.436Z,6.40
2019-04-29T07:26:42.526Z,4.85
2019-04-29T07:29:13.130Z,5.47
2019-04-29T07:31:42.649Z,8.57
2019-04-29T07:34:12.961Z,7.17
2019-04-29T07:36:43.787Z,11.37
2019-04-29T07:39:14.063Z,7.50
2019-04-29T07:41:43.362Z,6.80
2019-04-29T07:44:18.261Z,7.23
2019-04-29T07:46:56.625Z,9.43
2019-04-29T07:49:23.539Z,8.47
2019-04-29T07:51:54.015Z,9.47
2019-04-29T07:54:23.354Z,9.73
2019-04-29T07:56:52.653Z,11.57
2019-04-29T07:59:22.287Z,13.50
2019-04-29T08:01:55.795Z,14.50
2019-04-29T08:04:26.367Z,13.17
2019-04-29T08:06:57.074Z,13.03
2019-04-29T08:09:27.562Z,20.53
2019-04-29T08:11:57.164Z,15.37
2019-04-29T08:14:27.411Z,18.30
2019-04-29T08:16:56.650Z,18.97
2019-04-29T08:19:29.487Z,13.00
2019-04-29T08:21:57.178Z,15.90
2019-04-29T08:24:26.799Z,12.23
2019-04-29T08:26:57.733Z,19.20
2019-04-29T08:29:30.857Z,13.83
2019-04-29T08:32:02.293Z,7.40
2019-04-29T08:34:31.595Z,11.40
2019-04-29T08:37:01.275Z,8.60
2019-04-29T08:39:32.255Z,8.30
2019-04-29T08:42:08.731Z,8.23
2019-04-29T08:44:54.636Z,8.10
2019-04-29T08:47:31.483Z,7.70
2019-04-29T08:49:59.432Z,12.53
2019-04-29T08:52:29.119Z,7.20
2019-04-29T08:54:58.697Z,8.37
2019-04-29T08:57:31.804Z,6.90
2019-04-29T09:00:00.566Z,7.73
2019-04-29T09:02:34.987Z,8.73
2019-04-29T09:05:02.503Z,8.40
2019-04-29T09:07:32.611Z,9.47
2019-04-29T09:10:03.646Z,5.87
2019-04-29T09:12:32.881Z,2.83
2019-04-29T09:15:02.434Z,4.20
2019-04-29T09:17:33.263Z,8.43
2019-04-29T09:20:02.901Z,3.67
2019-04-29T09:22:35.499Z,6.87
2019-04-29T09:25:32.586Z,7.00
2019-04-29T09:28:06.323Z,6.70
2019-04-29T09:30:38.662Z,4.33
2019-04-29T09:33:08.698Z,9.50
2019-04-29T09:35:38.854Z,6.33
2019-04-29T09:38:09.225Z,10.67
2019-04-29T09:40:45.655Z,11.07
2019-04-29T09:43:26.206Z,5.83
2019-04-29T09:46:01.159Z,6.13
2019-04-29T09:48:30.431Z,3.90
2019-04-29T09:51:01.594Z,8.27
2019-04-29T09:53:32.470Z,4.80
2019-04-29T09:56:01.819Z,5.43
2019-04-29T09:58:31.360Z,6.70
2019-04-29T10:01:27.253Z,4.47
2019-04-29T10:04:16.785Z,4.50
2019-04-29T10:06:47.701Z,5.43
2019-04-29T10:09:16.954Z,7.73
2019-04-29T10:11:46.237Z,7.43
2019-04-29T10:14:15.501Z,5.90
2019-04-29T10:17:06.707Z,5.50
2019-04-29T10:19:44.174Z,5.33
2019-04-29T10:22:13.438Z,4.30
2019-04-29T10:24:44.183Z,4.03
2019-04-29T10:27:15.054Z,5.10
2019-04-29T10:29:46.526Z,4.13
2019-04-29T10:32:15.882Z,4.47
2019-04-29T10:34:47.001Z,6.97
2019-04-29T10:37:16.359Z,6.17
2019-04-29T10:40:10.614Z,9.07
2019-04-29T10:42:36.494Z,5.22
2019-04-29T10:45:21.714Z,6.83
2019-04-29T10:48:01.176Z,3.53
2019-04-29T10:50:52.230Z,5.73
2019-04-29T10:53:23.558Z,6.27
2019-04-29T10:55:53.585Z,5.03
2019-04-29T10:58:30.198Z,7.87
2019-04-29T11:01:37.547Z,6.30
2019-04-29T11:04:08.834Z,5.40
2019-04-29T11:06:38.640Z,5.77
2019-04-29T11:09:27.501Z,5.60
2019-04-29T11:11:57.147Z,5.73
2019-04-29T11:14:26.868Z,4.90
2019-04-29T11:16:56.614Z,5.53
2019-04-29T11:19:26.242Z,6.57
2019-04-29T11:21:55.902Z,5.80
2019-04-29T11:24:46.395Z,5.80
2019-04-29T11:27:20.465Z,6.75
2019-04-29T11:29:52.197Z,8.77
2019-04-29T11:32:30.338Z,6.60
2019-04-29T11:35:28.479Z,6.77
2019-04-29T11:37:59.963Z,6.20
2019-04-29T11:40:43.185Z,5.40
2019-04-29T11:43:02.526Z,8.20
2019-04-29T11:45:33.741Z,7.20
2019-04-29T11:48:06.863Z,7.93
2019-04-29T11:50:49.394Z,5.13
2019-04-29T11:53:16.147Z,9.57
2019-04-29T11:55:46.425Z,7.47
2019-04-29T11:58:26.701Z,7.53
2019-04-29T12:01:10.343Z,7.10
2019-04-29T12:03:40.721Z,6.23
2019-04-29T12:06:16.367Z,8.50
2019-04-29T12:08:48.168Z,8.40
2019-04-29T12:11:15.857Z,8.03
2019-04-29T12:14:10.219Z,8.57
2019-04-29T12:16:46.966Z,7.00
2019-04-29T12:19:24.576Z,7.30
2019-04-29T12:21:53.847Z,7.83
2019-04-29T12:24:23.086Z,7.67
2019-04-29T12:26:52.714Z,10.53
2019-04-29T12:29:22.040Z,6.23
2019-04-29T12:32:12.309Z,11.07
2019-04-29T12:34:56.026Z,6.90
2019-04-29T12:37:48.578Z,8.17
2019-04-29T12:40:41.014Z,7.53
2019-04-29T12:43:27.962Z,11.27
2019-04-29T12:46:25.239Z,12.67
2019-04-29T12:48:54.634Z,9.30
2019-04-29T12:51:24.230Z,15.93
2019-04-29T12:53:53.772Z,9.63
2019-04-29T12:56:35.471Z,9.67
2019-04-29T12:59:06.157Z,10.63
2019-04-29T13:01:51.275Z,12.67
2019-04-29T13:04:33.621Z,13.17
2019-04-29T13:07:22.120Z,13.23
2019-04-29T13:09:52.875Z,11.50
2019-04-29T13:12:25.041Z,11.60
2019-04-29T13:15:14.158Z,11.70
2019-04-29T13:18:08.570Z,13.33
2019-04-29T13:20:36.426Z,15.57
2019-04-29T13:23:17.714Z,15.57
2019-04-29T13:25:38.881Z,16.60
2019-04-29T13:28:08.216Z,13.80
2019-04-29T13:30:37.474Z,13.10
2019-04-29T13:33:15.946Z,18.53
2019-04-29T13:35:47.964Z,14.93
2019-04-29T13:38:09.824Z,13.87
2019-04-29T13:40:39.521Z,14.20
2019-04-29T13:43:10.314Z,10.30
2019-04-29T13:45:47.004Z,12.47
2019-04-29T13:48:55.230Z,17.97
2019-04-29T13:51:34.817Z,15.10
2019-04-29T13:53:55.410Z,14.87
2019-04-29T13:56:35.163Z,15.00
2019-04-29T13:58:57.965Z,15.20
2019-04-29T14:02:00.095Z,16.90
2019-04-29T14:04:27.110Z,21.07
2019-04-29T14:06:57.667Z,19.40
2019-04-29T14:09:28.588Z,17.73
2019-04-29T14:12:02.108Z,18.37
2019-04-29T14:14:30.225Z,17.63
2019-04-29T14:17:17.051Z,17.53
2019-04-29T14:19:40.934Z,14.83
2019-04-29T14:22:02.611Z,21.87
2019-04-29T14:24:33.531Z,18.67
2019-04-29T14:27:02.810Z,18.13
2019-04-29T14:29:36.136Z,23.37
2019-04-29T14:32:05.604Z,27.33
2019-04-29T14:34:43.620Z,21.00
2019-04-29T14:37:21.162Z,19.77
2019-04-29T14:39:45.297Z,21.23
2019-04-29T14:42:30.156Z,21.40
2019-04-29T14:45:26.897Z,24.87
2019-04-29T14:48:23.561Z,20.40
2019-04-29T14:50:54.411Z,23.47
2019-04-29T14:53:26.276Z,19.37
2019-04-29T14:55:56.863Z,20.53
2019-04-29T14:58:26.266Z,21.57
2019-04-29T15:01:23.438Z,22.17
2019-04-29T15:03:55.269Z,21.50
2019-04-29T15:06:28.948Z,30.13
2019-04-29T15:08:59.264Z,28.03
2019-04-29T15:11:34.266Z,34.50
2019-04-29T15:14:25.350Z,29.93
2019-04-29T15:17:05.621Z,31.70
2019-04-29T15:20:00.062Z,25.53
2019-04-29T15:22:32.872Z,32.83
2019-04-29T15:25:02.212Z,29.53
2019-04-29T15:27:33.570Z,25.00
2019-04-29T15:30:03.863Z,24.40
2019-04-29T15:32:33.142Z,17.80
2019-04-29T15:35:04.620Z,21.17
2019-04-29T15:37:33.906Z,19.10
2019-04-29T15:40:04.669Z,27.80
2019-04-29T15:42:37.970Z,19.33
2019-04-29T15:45:07.050Z,22.90
2019-04-29T15:47:41.702Z,25.30
2019-04-29T15:50:19.164Z,20.95
2019-04-29T15:52:49.154Z,17.93
2019-04-29T15:55:18.491Z,14.90
2019-04-29T16:00:22.949Z,14.00
2019-04-29T16:02:52.297Z,13.10
2019-04-29T16:08:40.680Z,11.77
2019-04-29T16:11:33.351Z,12.70
2019-04-29T16:14:09.247Z,10.23
2019-04-29T16:16:35.570Z,9.37
2019-04-29T16:19:10.286Z,10.07
2019-04-29T16:21:41.578Z,12.37
2019-04-29T16:24:26.014Z,11.40
2019-04-29T16:26:40.967Z,11.40
2019-04-29T16:29:15.150Z,14.10
2019-04-29T16:31:43.224Z,11.90
2019-04-29T16:34:14.489Z,12.33
2019-04-29T16:36:49.813Z,9.87
2019-04-29T16:39:15.695Z,14.30
2019-04-29T16:42:02.751Z,17.30
2019-04-29T16:44:35.947Z,16.50
2019-04-29T16:47:07.351Z,14.53
2019-04-29T16:49:38.228Z,13.50
2019-04-29T16:52:07.481Z,15.77
2019-04-29T16:54:36.757Z,21.47
2019-04-29T16:57:07.924Z,19.20
2019-04-29T16:59:38.910Z,17.60
2019-04-29T17:02:08.571Z,21.27
2019-04-29T17:04:38.382Z,18.07
2019-04-29T17:07:13.362Z,21.10
2019-04-29T17:10:05.658Z,23.90
2019-04-29T17:12:59.903Z,26.20
2019-04-29T17:15:29.748Z,26.83
2019-04-29T17:17:59.384Z,20.57
2019-04-29T17:20:29.098Z,22.73
2019-04-29T17:22:58.366Z,26.40
2019-04-29T17:25:27.637Z,26.37
2019-04-29T17:28:36.475Z,24.60
2019-04-29T17:31:37.935Z,24.77
2019-04-29T17:34:29.397Z,23.63
2019-04-29T17:35:14.929Z,13.90
2019-04-29T17:35:17.350Z,11.63
2019-04-29T17:36:48.407Z,27.70
2019-04-29T17:39:20.198Z,31.10
2019-04-29T17:41:49.481Z,25.93
2019-04-29T17:44:51.981Z,27.67
2019-04-29T17:47:49.704Z,28.67
2019-04-29T17:50:33.566Z,32.27
2019-04-29T17:53:03.721Z,25.67
2019-04-29T17:55:55.464Z,26.77
2019-04-29T17:58:35.857Z,28.07
2019-04-29T18:01:27.727Z,30.20
2019-04-29T18:04:16.695Z,38.20
2019-04-29T18:06:58.933Z,30.72
2019-04-29T18:09:30.365Z,29.47
2019-04-29T18:12:05.058Z,60.53
2019-04-29T18:14:39.084Z,45.77
2019-04-29T18:17:07.678Z,37.53
2019-04-29T18:19:55.407Z,47.00
2019-04-29T18:22:47.795Z,37.93
2019-04-29T18:25:30.684Z,46.40
2019-04-29T18:28:00.053Z,35.10
2019-04-29T18:30:35.736Z,44.07
2019-04-29T18:33:05.258Z,43.27
2019-04-29T18:35:35.810Z,49.43
2019-04-29T18:38:07.487Z,43.03
2019-04-29T18:40:41.945Z,46.27
2019-04-29T18:43:09.107Z,44.47
2019-04-29T18:45:39.143Z,41.20
2019-04-29T18:48:16.691Z,46.13
2019-04-29T18:50:41.450Z,45.80
2019-04-29T18:53:12.575Z,42.83
2019-04-29T18:55:45.073Z,38.17
2019-04-29T18:58:16.018Z,37.63
2019-04-29T19:00:52.331Z,44.53
2019-04-29T19:03:21.109Z,45.60
2019-04-29T19:05:55.146Z,46.60
2019-04-29T19:08:28.607Z,45.27
2019-04-29T19:10:56.776Z,39.90
2019-04-29T19:13:30.631Z,42.27
2019-04-29T19:16:09.561Z,46.20
2019-04-29T19:18:29.889Z,44.87
2019-04-29T19:20:59.294Z,50.47
2019-04-29T19:23:29.700Z,42.93
2019-04-29T19:25:59.346Z,43.40
2019-04-29T19:28:30.935Z,38.70
2019-04-29T19:31:03.166Z,36.23
2019-04-29T19:33:35.060Z,35.13
2019-04-29T19:36:01.751Z,40.30
2019-04-29T19:38:30.992Z,39.40
2019-04-29T19:41:00.361Z,38.30
2019-04-29T19:43:30.337Z,35.23
2019-04-29T19:45:59.699Z,37.33
2019-04-29T19:48:28.986Z,36.60
2019-04-29T19:51:14.453Z,40.13
2019-04-29T19:53:37.718Z,37.00
2019-04-29T19:56:06.659Z,39.43
2019-04-29T19:58:35.746Z,37.53
2019-04-29T20:01:13.826Z,38.83
2019-04-29T20:03:49.742Z,39.20
2019-04-29T20:06:24.831Z,33.10
2019-04-29T20:08:57.022Z,33.87
2019-04-29T20:11:29.065Z,35.17
2019-04-29T20:14:01.953Z,36.97
2019-04-29T20:16:59.648Z,34.77
2019-04-29T20:19:55.475Z,32.37
2019-04-29T20:22:20.581Z,32.53
2019-04-29T20:24:50.915Z,31.07
2019-04-29T20:27:26.211Z,29.67
2019-04-29T20:29:55.884Z,29.50
2019-04-29T20:32:31.688Z,32.23
2019-04-29T20:35:07.129Z,28.13
2019-04-29T20:37:31.937Z,30.00
2019-04-29T20:40:01.796Z,31.53
2019-04-29T20:42:32.686Z,28.87
2019-04-29T20:45:02.541Z,31.13
2019-04-29T20:47:37.874Z,30.37
2019-04-29T20:50:03.077Z,29.90
2019-04-29T20:52:52.202Z,30.57
2019-04-29T20:55:20.435Z,29.47
2019-04-29T20:57:52.490Z,30.03
2019-04-29T21:00:24.772Z,31.00
2019-04-29T21:02:53.474Z,28.03
2019-04-29T21:05:24.824Z,32.50
2019-04-29T21:08:03.009Z,29.47
2019-04-29T21:10:27.722Z,29.00
2019-04-29T21:13:20.296Z,28.50
2019-04-29T21:15:59.627Z,36.90
2019-04-29T21:18:29.401Z,32.13
2019-04-29T21:20:59.694Z,30.10
2019-04-29T21:23:35.242Z,29.20
2019-04-29T21:26:07.155Z,21.50
2019-04-29T21:28:38.122Z,29.37
2019-04-29T21:31:05.951Z,29.53
2019-04-29T21:33:35.616Z,31.73
2019-04-29T21:36:30.754Z,28.50
2019-04-29T21:39:26.586Z,38.40
2019-04-29T21:42:05.709Z,31.90
2019-04-29T21:44:35.183Z,31.60
2019-04-29T21:47:08.041Z,29.73
2019-04-29T21:49:44.905Z,29.60
2019-04-29T21:52:10.805Z,32.87
2019-04-29T21:54:44.486Z,31.77
2019-04-29T21:57:18.508Z,30.00
2019-04-29T21:59:46.154Z,38.10
2019-04-29T22:02:17.545Z,30.93
2019-04-29T22:04:48.943Z,32.07
2019-04-29T22:07:19.201Z,36.40
2019-04-29T22:09:50.306Z,39.67
2019-04-29T22:12:20.431Z,32.97
2019-04-29T22:14:56.392Z,37.73
2019-04-29T22:17:26.356Z,25.57
2019-04-29T22:19:57.407Z,32.17
2019-04-29T22:22:30.620Z,37.20
2019-04-29T22:25:05.803Z,30.87
2019-04-29T22:27:34.230Z,31.27
2019-04-29T22:30:05.821Z,38.10
2019-04-29T22:32:35.676Z,36.47
2019-04-29T22:35:06.606Z,40.00
2019-04-29T22:37:38.203Z,35.70
2019-04-29T22:40:08.010Z,40.47
2019-04-29T22:42:48.710Z,36.73
2019-04-29T22:45:19.665Z,38.90
2019-04-29T22:47:49.402Z,34.40
2019-04-29T22:50:19.028Z,33.13
2019-04-29T22:52:49.434Z,48.23
2019-04-29T22:55:18.718Z,48.83
2019-04-29T22:57:47.954Z,46.70
2019-04-29T23:00:19.660Z,58.10
2019-04-29T23:02:48.912Z,46.37
2019-04-29T23:05:23.607Z,49.63
2019-04-29T23:07:52.865Z,45.33
2019-04-29T23:10:26.246Z,42.57
2019-04-29T23:12:57.238Z,57.07
2019-04-29T23:15:26.007Z,59.27
2019-04-29T23:17:57.312Z,53.23
2019-04-29T23:20:45.633Z,53.07
2019-04-29T23:23:20.155Z,58.23
2019-04-29T23:25:55.660Z,56.53
2019-04-29T23:28:28.384Z,63.07
2019-04-29T23:30:58.312Z,59.50
2019-04-29T23:33:27.653Z,60.43
2019-04-29T23:35:57.905Z,56.80
2019-04-29T23:38:27.213Z,65.33
2019-04-29T23:40:57.791Z,66.83
2019-04-29T23:43:28.539Z,67.80
2019-04-29T23:46:00.519Z,72.80
2019-04-29T23:48:38.689Z,73.73
2019-04-29T23:51:00.882Z,67.27
2019-04-29T23:53:31.959Z,62.97
2019-04-29T23:56:05.577Z,65.53
2019-04-29T23:58:52.676Z,70.70
